Voyageurs National Park, MN

07:05 AM CDT die 21o August, anno 2014 (GMT -0500)
Wayside Lane | Change Station
CLOSE
Current Station
Personal Weather Stations
Location: International Falls, MN
Elevation: 1115 ft
Nearby Weather Stations

Elev 1115 ft 48.60 °N, 93.42 °W | Updated 6 minutes ago

Overcast
Aequaliter Nubila
58.6 °F
Feels Like 58.6 °F
N
0.0
Ventus Variabilis Ventus from Inter Aquilonem et Eurum
Gusts 2.0 mph

Hodie
High -- | Low -- °F
--% Chance of Precip.
Yesterday
High -- | Low -- °F
Precip. -- in
6:15 AM 8:17 PM
Waning Crescent, 14% visible
Pressio 29.91 in
Visibilitas 10.0 milia passuum
Clouds Aequaliter Nubila 300 ft
Frigus in quo Ros apparet 58 °F
Umor 97%
Rainfall 0.00 in
Snow Depth Not available.
UV 0 out of 12
Pollen 6.30 out of 12
Air Quality Not available.
Flu Activity Not available.
METAR KINL 211155Z AUTO 11008KT 10SM OVC003 15/14 A2991 RMK AO2 SLP129 T01500144 10150 20128 53011

More Conditions Fewer Conditions

Pressio 29.91 in
Visibilitas 10.0 milia passuum
Clouds Aequaliter Nubila 300 ft
Frigus in quo Ros apparet 58 °F
Umor 97%
Rainfall 0.00 in
Snow Depth Not available.
UV 0 out of 12
Pollen 6.30 out of 12
Air Quality Not available.
Flu Activity Not available.
METAR KINL 211155Z AUTO 11008KT 10SM OVC003 15/14 A2991 RMK AO2 SLP129 T01500144 10150 20128 53011

More Conditions Fewer Conditions

10-Day Weather Forecast

Almanac

Astronomy

Aug. 21, 2014 Rise Set
Actual Time 6:15 AM CDT 8:17 PM CDT
Civil Twilight 5:41 AM CDT 8:50 PM CDT
Nautical Twilight 4:59 AM CDT 9:32 PM CDT
Astronomical Twilight 4:12 AM CDT 10:19 PM CDT
Moon 2:38 AM CDT 5:53 PM CDT
Length Of Visible Light 15h 09m
Length of Day
14h 01m
Tomorrow will be 3m 18s shorter.
Waning Crescent, 14% of the Moon is Illuminated
Hodie
Waning Crescent
Aug 25
New
Sep 2
First Quarter
Sep 8
Full
Sep 15
Last Quarter

Today's Extremes

State Highs State Lows

Community

WunderPhotos

Upload Photos

1,745,882 photos uploaded!

Nearby

Snow Depth

Station Depth Elevation
No new snow has been reported.

Earthquake Activity

City Distance Mag. Time & Date
No recent earthquake activity has been reported nearby.
Minimum magnitude displayed is 2.5.

Coastal Water Temperatures

Locus Calor
No Stations Reporting

Nearby Weather Stations